Ergebnisliste vom: 21.05.2016 - Cross-Duathlon-Limbach2016 - 6km-20km-3km (Staffel)

weitere Ergebnisse >>

Platz Plm Plw StNr. Name,Vorname Verein AK AKm AKw Endzeit 1.Laufzeit Radzeit 1.Lauf+Rad 2.Laufzeit Rückst. WB
1 1   360 Rico Lassek, Lars Wendler Chemnitzer LV Megware meets Team Stein Bikes Männer 1   1:09:46 0:21:56( 1 ) 0:00:00 0:00:00 0:00:00 0:00:00 3
2 2   368 Christian Fritze, René Hübner Team FangtDasGnu Männer 2   1:11:03 0:22:17( 2 ) 0:37:16( 4 ) 0:59:33( 1 ) 0:11:30( 1 ) 0:01:17 3
3 3   357 Falk Schneider, Christian Schöpf RSV Speiche/Weltrenner Leipzig Männer 3   1:11:08 0:22:42( 3 ) 0:36:51( 3 ) 0:59:33( 1 ) 0:11:35( 2 ) 0:01:22 3
4 4   371 Maik Amelang, Ralf Wiesner Velo Deluxe Männer 4   1:15:20 0:25:20( 4 ) 0:36:43( 2 ) 1:02:03( 4 ) 0:13:17( 4 ) 0:05:34 3
5 5   361 Christian Schröder, Emanuel Junge Team TBR-Werner Männer 5   1:16:35 0:25:51( 6 ) 0:35:45( 1 ) 1:01:36( 3 ) 0:14:59( 15 ) 0:06:49 3
6 6   367 Constantin Seidel, Bertram Seidel Sportwerk.net.Annaberg Männer 6   1:19:06 0:25:33( 5 ) 0:40:31( 9 ) 1:06:04( 7 ) 0:13:02( 3 ) 0:09:20 3
7 7   374 Susan Kunz, Marie Chantal Laaser SG Adelsberg/ Team Steinbikes Frauen 1   1:19:14 0:26:17( 8 ) 0:39:35( 7 ) 1:05:52( 6 ) 0:13:22( 5 ) 0:09:28 3
8 8   365 Diddi Sonntag, Michael Günther EBM-Team Seiffen Männer 7   1:19:28 0:27:11( 10 ) 0:38:28( 6 ) 1:05:39( 5 ) 0:13:49( 7 ) 0:09:42 3
9 9   354 Christian Helke, Kay Trautvetter TEAM Stempelbremse Männer 8   1:21:33 0:27:13( 11 ) 0:40:28( 8 ) 1:07:41( 9 ) 0:13:52( 8 ) 0:11:47 3
10 10   364 Hannes Günther, Manja Becker SG Adelsberg / BIKER-BOARDER.DE mixed 1   1:22:18 0:29:19( 17 ) 0:38:00( 5 ) 1:07:19( 8 ) 0:14:59( 15 ) 0:12:32 3
11 11   356 Sven Irmscher, Steffen Wostratzky roadieworks Männer 9   1:23:07 0:27:33( 12 ) 0:41:14( 11 ) 1:08:47( 10 ) 0:14:20( 11 ) 0:13:21 3
12 12   352 Kai Winkler, Ralf Ahner MTB-BSV Limbach Männer 10   1:23:16 0:28:17( 14 ) 0:40:53( 10 ) 1:09:10( 11 ) 0:14:06( 10 ) 0:13:30 3
13 13   353 Steffen Polster, Steffen Reißig BSV Limbach-Oberfrohna Männer 11   1:23:38 0:28:04( 13 ) 0:42:06( 13 ) 1:10:10( 12 ) 0:13:28( 6 ) 0:13:52 3
14 14   369 Jens Teuscher, Jessica Poller Radsportteam Reichenbach mixed 2   1:24:20 0:26:03( 7 ) 0:44:22( 16 ) 1:10:25( 13 ) 0:13:55( 9 ) 0:14:34 3
15 15   372 Katrin Taubert, Julia Rimpl Chemnitz Frauen 2   1:26:24 0:26:57( 9 ) 0:45:07( 18 ) 1:12:04( 14 ) 0:14:20( 12 ) 0:16:38 3
16 16   366 Matthias Baldauf, Annett Baldauf druckluft-technik Chemnitz mixed 3   1:28:42 0:30:13( 19 ) 0:43:17( 15 ) 1:13:30( 16 ) 0:15:12( 17 ) 0:18:56 3
17 17   370 Lea Harbig, Wolfgang Harbig SC Chemnitz Triathlon mixed 4   1:28:59 0:29:08( 16 ) 0:44:56( 17 ) 1:14:04( 18 ) 0:14:55( 14 ) 0:19:13 3
18 18   358 Michél Popp, Rebekka Heß Radsportteam Reichenbach mixed 5   1:29:04 0:31:23( 20 ) 0:41:35( 12 ) 1:12:58( 15 ) 0:16:06( 18 ) 0:19:18 3
18 18   362 Amy Bernhardt, Annalena Held SC Riesa Triathlon Frauen 3   1:29:04 0:28:35( 15 ) 0:00:00 0:00:00 0:00:00 0:19:18 3
20 20   373 André König, vorname Bachmann Hart am Wind Männer 12   1:30:52 0:31:29( 21 ) 0:42:27( 14 ) 1:13:56( 17 ) 0:16:56( 19 ) 0:21:06 3
21 21   363 Robert Schädlich, Marcel Erdmann scia systems Männer 13   1:32:00 0:29:31( 18 ) 0:47:38( 19 ) 1:17:09( 19 ) 0:14:51( 13 ) 0:22:14 3
22 22   355 Tina Helke, Anne Schellner TEAM Stempelbremse Girls Frauen 4   1:48:54 0:33:01( 22 ) 0:57:43( 20 ) 1:30:44( 20 ) 0:18:10( 20 ) 0:39:08 3
(c) 1990-2020 Blue Wonder Sport Promotion - Andreas Burow - Zeitnahme & Auswertung - www.Triathlon-Service.de